sensor_id;sensor_type;location;lat;lon;timestamp;P1;durP1;ratioP1;P2;durP2;ratioP2
39936;SDS011;27803;42.740;23.340;2023-12-20T00:02:11;159.00;;;69.37;;
39936;SDS011;27803;42.740;23.340;2023-12-20T00:04:37;154.87;;;70.97;;
39936;SDS011;27803;42.740;23.340;2023-12-20T00:07:02;136.13;;;64.10;;
39936;SDS011;27803;42.740;23.340;2023-12-20T00:09:28;138.50;;;67.77;;
39936;SDS011;27803;42.740;23.340;2023-12-20T00:11:53;150.67;;;69.60;;
39936;SDS011;27803;42.740;23.340;2023-12-20T00:14:18;149.50;;;68.73;;
39936;SDS011;27803;42.740;23.340;2023-12-20T00:16:44;150.07;;;69.50;;
39936;SDS011;27803;42.740;23.340;2023-12-20T00:19:09;160.10;;;70.70;;
39936;SDS011;27803;42.740;23.340;2023-12-20T00:21:34;154.83;;;72.43;;
39936;SDS011;27803;42.740;23.340;2023-12-20T00:24:00;166.37;;;73.47;;
39936;SDS011;27803;42.740;23.340;2023-12-20T00:26:25;212.30;;;76.70;;
39936;SDS011;27803;42.740;23.340;2023-12-20T00:28:51;138.67;;;65.63;;
39936;SDS011;27803;42.740;23.340;2023-12-20T00:31:16;182.27;;;72.03;;
39936;SDS011;27803;42.740;23.340;2023-12-20T00:33:41;137.20;;;61.73;;
39936;SDS011;27803;42.740;23.340;2023-12-20T00:36:08;139.40;;;62.27;;
39936;SDS011;27803;42.740;23.340;2023-12-20T00:38:34;120.67;;;61.43;;
39936;SDS011;27803;42.740;23.340;2023-12-20T00:41:00;121.77;;;60.60;;
39936;SDS011;27803;42.740;23.340;2023-12-20T00:43:25;160.67;;;68.63;;
39936;SDS011;27803;42.740;23.340;2023-12-20T00:45:51;148.67;;;68.23;;
39936;SDS011;27803;42.740;23.340;2023-12-20T00:48:17;169.07;;;72.97;;
39936;SDS011;27803;42.740;23.340;2023-12-20T00:50:42;135.70;;;66.67;;
39936;SDS011;27803;42.740;23.340;2023-12-20T00:53:07;153.03;;;67.53;;
39936;SDS011;27803;42.740;23.340;2023-12-20T00:55:33;177.27;;;72.40;;
39936;SDS011;27803;42.740;23.340;2023-12-20T00:57:58;148.60;;;67.33;;
39936;SDS011;27803;42.740;23.340;2023-12-20T01:00:25;145.80;;;61.33;;
39936;SDS011;27803;42.740;23.340;2023-12-20T01:02:50;140.50;;;64.27;;
39936;SDS011;27803;42.740;23.340;2023-12-20T01:05:16;164.50;;;64.37;;
39936;SDS011;27803;42.740;23.340;2023-12-20T01:07:43;133.83;;;61.30;;
39936;SDS011;27803;42.740;23.340;2023-12-20T01:13:01;100.87;;;51.40;;
39936;SDS011;27803;42.740;23.340;2023-12-20T01:15:26;165.13;;;62.57;;
39936;SDS011;27803;42.740;23.340;2023-12-20T01:17:55;122.10;;;56.10;;
39936;SDS011;27803;42.740;23.340;2023-12-20T01:20:21;104.40;;;54.10;;
39936;SDS011;27803;42.740;23.340;2023-12-20T01:22:50;116.10;;;55.37;;
39936;SDS011;27803;42.740;23.340;2023-12-20T01:25:15;113.90;;;54.17;;
39936;SDS011;27803;42.740;23.340;2023-12-20T01:27:41;85.23;;;46.67;;
39936;SDS011;27803;42.740;23.340;2023-12-20T01:30:06;96.03;;;52.77;;
39936;SDS011;27803;42.740;23.340;2023-12-20T01:32:32;105.00;;;51.40;;
39936;SDS011;27803;42.740;23.340;2023-12-20T01:34:57;124.27;;;52.13;;
39936;SDS011;27803;42.740;23.340;2023-12-20T01:37:23;104.17;;;48.50;;
39936;SDS011;27803;42.740;23.340;2023-12-20T01:39:50;86.77;;;47.90;;
39936;SDS011;27803;42.740;23.340;2023-12-20T01:42:15;102.67;;;49.23;;
39936;SDS011;27803;42.740;23.340;2023-12-20T01:44:41;87.07;;;44.30;;
39936;SDS011;27803;42.740;23.340;2023-12-20T01:47:06;75.40;;;42.27;;
39936;SDS011;27803;42.740;23.340;2023-12-20T01:49:32;82.73;;;44.50;;
39936;SDS011;27803;42.740;23.340;2023-12-20T01:51:58;87.30;;;45.03;;
39936;SDS011;27803;42.740;23.340;2023-12-20T01:54:23;97.47;;;43.77;;
39936;SDS011;27803;42.740;23.340;2023-12-20T01:56:49;85.50;;;42.23;;
39936;SDS011;27803;42.740;23.340;2023-12-20T01:59:16;75.27;;;37.50;;
39936;SDS011;27803;42.740;23.340;2023-12-20T02:01:43;67.07;;;33.63;;
39936;SDS011;27803;42.740;23.340;2023-12-20T02:04:08;67.60;;;35.90;;
39936;SDS011;27803;42.740;23.340;2023-12-20T02:06:34;113.80;;;43.23;;
39936;SDS011;27803;42.740;23.340;2023-12-20T02:08:59;79.33;;;37.07;;
39936;SDS011;27803;42.740;23.340;2023-12-20T02:11:25;84.97;;;37.33;;
39936;SDS011;27803;42.740;23.340;2023-12-20T02:13:51;72.97;;;33.40;;
39936;SDS011;27803;42.740;23.340;2023-12-20T02:16:16;68.73;;;32.57;;
39936;SDS011;27803;42.740;23.340;2023-12-20T02:18:43;84.43;;;38.50;;
39936;SDS011;27803;42.740;23.340;2023-12-20T02:21:09;70.17;;;34.73;;
39936;SDS011;27803;42.740;23.340;2023-12-20T02:23:35;66.17;;;34.23;;
39936;SDS011;27803;42.740;23.340;2023-12-20T02:26:00;78.73;;;36.23;;
39936;SDS011;27803;42.740;23.340;2023-12-20T02:28:26;67.17;;;35.10;;
39936;SDS011;27803;42.740;23.340;2023-12-20T02:30:52;63.70;;;34.27;;
39936;SDS011;27803;42.740;23.340;2023-12-20T02:33:17;80.13;;;37.23;;
39936;SDS011;27803;42.740;23.340;2023-12-20T02:35:43;62.27;;;32.67;;
39936;SDS011;27803;42.740;23.340;2023-12-20T02:38:08;65.10;;;31.97;;
39936;SDS011;27803;42.740;23.340;2023-12-20T02:40:33;74.40;;;32.53;;
39936;SDS011;27803;42.740;23.340;2023-12-20T02:42:59;95.57;;;35.40;;
39936;SDS011;27803;42.740;23.340;2023-12-20T02:45:24;62.63;;;30.77;;
39936;SDS011;27803;42.740;23.340;2023-12-20T02:47:51;62.43;;;34.30;;
39936;SDS011;27803;42.740;23.340;2023-12-20T02:50:17;62.43;;;31.17;;
39936;SDS011;27803;42.740;23.340;2023-12-20T02:55:10;69.87;;;31.93;;
39936;SDS011;27803;42.740;23.340;2023-12-20T02:57:35;66.17;;;30.50;;
39936;SDS011;27803;42.740;23.340;2023-12-20T03:00:01;63.27;;;29.77;;
39936;SDS011;27803;42.740;23.340;2023-12-20T03:02:26;89.97;;;30.70;;
39936;SDS011;27803;42.740;23.340;2023-12-20T03:04:52;63.70;;;38.27;;
39936;SDS011;27803;42.740;23.340;2023-12-20T03:07:17;100.43;;;46.03;;
39936;SDS011;27803;42.740;23.340;2023-12-20T03:09:43;79.30;;;40.10;;
39936;SDS011;27803;42.740;23.340;2023-12-20T03:12:08;85.97;;;40.63;;
39936;SDS011;27803;42.740;23.340;2023-12-20T03:14:33;76.10;;;40.50;;
39936;SDS011;27803;42.740;23.340;2023-12-20T03:16:59;125.90;;;53.60;;
39936;SDS011;27803;42.740;23.340;2023-12-20T03:19:24;90.27;;;44.70;;
39936;SDS011;27803;42.740;23.340;2023-12-20T03:21:49;67.13;;;33.30;;
39936;SDS011;27803;42.740;23.340;2023-12-20T03:24:15;54.60;;;30.33;;
39936;SDS011;27803;42.740;23.340;2023-12-20T03:26:40;70.47;;;33.70;;
39936;SDS011;27803;42.740;23.340;2023-12-20T03:29:06;62.63;;;32.20;;
39936;SDS011;27803;42.740;23.340;2023-12-20T03:31:31;65.50;;;33.13;;
39936;SDS011;27803;42.740;23.340;2023-12-20T03:33:56;68.13;;;32.80;;
39936;SDS011;27803;42.740;23.340;2023-12-20T03:36:22;60.37;;;30.77;;
39936;SDS011;27803;42.740;23.340;2023-12-20T03:38:47;48.03;;;29.13;;
39936;SDS011;27803;42.740;23.340;2023-12-20T03:41:13;90.73;;;34.40;;
39936;SDS011;27803;42.740;23.340;2023-12-20T03:43:38;82.07;;;41.43;;
39936;SDS011;27803;42.740;23.340;2023-12-20T03:46:04;71.63;;;34.33;;
39936;SDS011;27803;42.740;23.340;2023-12-20T03:48:30;62.13;;;31.00;;
39936;SDS011;27803;42.740;23.340;2023-12-20T03:50:56;83.77;;;33.93;;
39936;SDS011;27803;42.740;23.340;2023-12-20T03:53:22;68.43;;;33.87;;
39936;SDS011;27803;42.740;23.340;2023-12-20T03:55:47;77.00;;;36.33;;
39936;SDS011;27803;42.740;23.340;2023-12-20T03:58:13;67.53;;;33.83;;
39936;SDS011;27803;42.740;23.340;2023-12-20T04:00:38;67.73;;;34.70;;
39936;SDS011;27803;42.740;23.340;2023-12-20T04:03:04;76.33;;;36.50;;
39936;SDS011;27803;42.740;23.340;2023-12-20T04:05:29;68.67;;;34.30;;
39936;SDS011;27803;42.740;23.340;2023-12-20T04:07:54;67.83;;;36.07;;
39936;SDS011;27803;42.740;23.340;2023-12-20T04:10:20;76.83;;;35.87;;
39936;SDS011;27803;42.740;23.340;2023-12-20T04:12:45;66.97;;;33.03;;
39936;SDS011;27803;42.740;23.340;2023-12-20T04:15:10;63.83;;;32.73;;
39936;SDS011;27803;42.740;23.340;2023-12-20T04:17:37;73.40;;;34.00;;
39936;SDS011;27803;42.740;23.340;2023-12-20T04:20:02;68.97;;;32.83;;
39936;SDS011;27803;42.740;23.340;2023-12-20T04:22:28;76.90;;;35.30;;
39936;SDS011;27803;42.740;23.340;2023-12-20T04:24:53;84.47;;;42.40;;
39936;SDS011;27803;42.740;23.340;2023-12-20T04:27:19;111.57;;;43.30;;
39936;SDS011;27803;42.740;23.340;2023-12-20T04:29:44;71.33;;;40.10;;
39936;SDS011;27803;42.740;23.340;2023-12-20T04:32:09;100.03;;;39.10;;
39936;SDS011;27803;42.740;23.340;2023-12-20T04:34:35;80.93;;;38.00;;
39936;SDS011;27803;42.740;23.340;2023-12-20T04:37:00;81.50;;;41.80;;
39936;SDS011;27803;42.740;23.340;2023-12-20T04:39:26;85.20;;;41.57;;
39936;SDS011;27803;42.740;23.340;2023-12-20T04:41:52;98.40;;;39.57;;
39936;SDS011;27803;42.740;23.340;2023-12-20T04:44:17;72.33;;;40.13;;
39936;SDS011;27803;42.740;23.340;2023-12-20T04:46:43;80.17;;;41.37;;
39936;SDS011;27803;42.740;23.340;2023-12-20T04:49:08;88.80;;;41.07;;
39936;SDS011;27803;42.740;23.340;2023-12-20T04:51:34;77.00;;;44.23;;
39936;SDS011;27803;42.740;23.340;2023-12-20T04:53:59;105.53;;;44.30;;
39936;SDS011;27803;42.740;23.340;2023-12-20T04:56:25;81.50;;;38.83;;
39936;SDS011;27803;42.740;23.340;2023-12-20T04:58:51;91.67;;;40.20;;
39936;SDS011;27803;42.740;23.340;2023-12-20T05:01:16;66.27;;;39.60;;
39936;SDS011;27803;42.740;23.340;2023-12-20T05:03:42;79.60;;;39.30;;
39936;SDS011;27803;42.740;23.340;2023-12-20T05:06:09;74.60;;;35.47;;
39936;SDS011;27803;42.740;23.340;2023-12-20T05:08:34;85.10;;;35.00;;
39936;SDS011;27803;42.740;23.340;2023-12-20T05:11:00;58.80;;;33.53;;
39936;SDS011;27803;42.740;23.340;2023-12-20T05:13:25;64.80;;;33.87;;
39936;SDS011;27803;42.740;23.340;2023-12-20T05:15:51;67.70;;;34.33;;
39936;SDS011;27803;42.740;23.340;2023-12-20T05:18:16;226.63;;;45.53;;
39936;SDS011;27803;42.740;23.340;2023-12-20T05:20:41;91.47;;;37.70;;
39936;SDS011;27803;42.740;23.340;2023-12-20T05:23:07;84.43;;;41.00;;
39936;SDS011;27803;42.740;23.340;2023-12-20T05:25:32;93.47;;;39.80;;
39936;SDS011;27803;42.740;23.340;2023-12-20T05:27:57;115.17;;;40.77;;
39936;SDS011;27803;42.740;23.340;2023-12-20T05:30:23;80.67;;;40.60;;
39936;SDS011;27803;42.740;23.340;2023-12-20T05:32:48;86.30;;;40.97;;
39936;SDS011;27803;42.740;23.340;2023-12-20T05:35:14;94.20;;;41.43;;
39936;SDS011;27803;42.740;23.340;2023-12-20T05:37:40;80.60;;;38.97;;
39936;SDS011;27803;42.740;23.340;2023-12-20T05:40:06;98.43;;;39.50;;
39936;SDS011;27803;42.740;23.340;2023-12-20T05:42:32;83.30;;;39.80;;
39936;SDS011;27803;42.740;23.340;2023-12-20T05:44:57;97.80;;;42.67;;
39936;SDS011;27803;42.740;23.340;2023-12-20T05:47:22;87.63;;;42.13;;
39936;SDS011;27803;42.740;23.340;2023-12-20T05:49:48;88.43;;;41.67;;
39936;SDS011;27803;42.740;23.340;2023-12-20T05:52:15;99.40;;;45.80;;
39936;SDS011;27803;42.740;23.340;2023-12-20T05:54:40;111.97;;;45.77;;
39936;SDS011;27803;42.740;23.340;2023-12-20T05:57:05;105.20;;;42.77;;
39936;SDS011;27803;42.740;23.340;2023-12-20T05:59:31;86.73;;;42.43;;
39936;SDS011;27803;42.740;23.340;2023-12-20T06:01:56;116.30;;;45.33;;
39936;SDS011;27803;42.740;23.340;2023-12-20T06:04:21;111.00;;;45.03;;
39936;SDS011;27803;42.740;23.340;2023-12-20T06:06:47;112.07;;;43.60;;
39936;SDS011;27803;42.740;23.340;2023-12-20T06:09:12;114.03;;;45.90;;
39936;SDS011;27803;42.740;23.340;2023-12-20T06:11:38;89.07;;;41.20;;
39936;SDS011;27803;42.740;23.340;2023-12-20T06:14:03;93.57;;;43.43;;
39936;SDS011;27803;42.740;23.340;2023-12-20T06:16:28;89.07;;;41.30;;
39936;SDS011;27803;42.740;23.340;2023-12-20T06:18:54;147.03;;;44.47;;
39936;SDS011;27803;42.740;23.340;2023-12-20T06:21:19;142.20;;;47.97;;
39936;SDS011;27803;42.740;23.340;2023-12-20T06:23:45;150.93;;;48.57;;
39936;SDS011;27803;42.740;23.340;2023-12-20T06:26:10;140.17;;;49.83;;
39936;SDS011;27803;42.740;23.340;2023-12-20T06:28:35;98.57;;;44.00;;
39936;SDS011;27803;42.740;23.340;2023-12-20T06:31:01;89.50;;;42.27;;
39936;SDS011;27803;42.740;23.340;2023-12-20T06:33:26;98.30;;;42.67;;
39936;SDS011;27803;42.740;23.340;2023-12-20T06:35:52;95.00;;;42.30;;
39936;SDS011;27803;42.740;23.340;2023-12-20T06:38:17;101.83;;;45.87;;
39936;SDS011;27803;42.740;23.340;2023-12-20T06:40:43;95.77;;;45.93;;
39936;SDS011;27803;42.740;23.340;2023-12-20T06:43:09;96.77;;;47.93;;
39936;SDS011;27803;42.740;23.340;2023-12-20T06:45:34;100.23;;;47.23;;
39936;SDS011;27803;42.740;23.340;2023-12-20T06:48:00;106.40;;;46.43;;
39936;SDS011;27803;42.740;23.340;2023-12-20T06:50:25;103.73;;;47.63;;
39936;SDS011;27803;42.740;23.340;2023-12-20T06:52:51;120.37;;;50.37;;
39936;SDS011;27803;42.740;23.340;2023-12-20T06:55:17;102.70;;;49.13;;
39936;SDS011;27803;42.740;23.340;2023-12-20T06:57:42;112.63;;;51.53;;
39936;SDS011;27803;42.740;23.340;2023-12-20T07:00:08;119.27;;;51.33;;
39936;SDS011;27803;42.740;23.340;2023-12-20T07:02:35;110.23;;;55.90;;
39936;SDS011;27803;42.740;23.340;2023-12-20T07:05:01;115.37;;;52.77;;
39936;SDS011;27803;42.740;23.340;2023-12-20T07:07:26;133.13;;;55.20;;
39936;SDS011;27803;42.740;23.340;2023-12-20T07:09:52;107.13;;;48.73;;
39936;SDS011;27803;42.740;23.340;2023-12-20T07:12:17;119.20;;;55.57;;
39936;SDS011;27803;42.740;23.340;2023-12-20T07:14:44;98.87;;;51.53;;
39936;SDS011;27803;42.740;23.340;2023-12-20T07:17:10;94.03;;;47.87;;
39936;SDS011;27803;42.740;23.340;2023-12-20T07:19:38;86.73;;;43.77;;
39936;SDS011;27803;42.740;23.340;2023-12-20T07:22:04;74.53;;;39.67;;
39936;SDS011;27803;42.740;23.340;2023-12-20T07:24:30;85.87;;;42.93;;
39936;SDS011;27803;42.740;23.340;2023-12-20T07:26:56;79.00;;;38.47;;
39936;SDS011;27803;42.740;23.340;2023-12-20T07:29:21;82.00;;;35.53;;
39936;SDS011;27803;42.740;23.340;2023-12-20T07:31:47;67.37;;;33.87;;
39936;SDS011;27803;42.740;23.340;2023-12-20T07:34:12;77.10;;;35.03;;
39936;SDS011;27803;42.740;23.340;2023-12-20T07:36:38;84.87;;;33.40;;
39936;SDS011;27803;42.740;23.340;2023-12-20T07:39:03;72.13;;;34.33;;
39936;SDS011;27803;42.740;23.340;2023-12-20T07:41:28;83.70;;;37.17;;
39936;SDS011;27803;42.740;23.340;2023-12-20T07:43:54;85.90;;;36.63;;
39936;SDS011;27803;42.740;23.340;2023-12-20T07:46:21;79.17;;;37.73;;
39936;SDS011;27803;42.740;23.340;2023-12-20T07:48:48;83.70;;;38.53;;
39936;SDS011;27803;42.740;23.340;2023-12-20T07:51:13;86.77;;;37.93;;
39936;SDS011;27803;42.740;23.340;2023-12-20T07:53:39;88.70;;;39.63;;
39936;SDS011;27803;42.740;23.340;2023-12-20T07:56:14;91.27;;;39.40;;
39936;SDS011;27803;42.740;23.340;2023-12-20T07:58:44;97.33;;;41.27;;
39936;SDS011;27803;42.740;23.340;2023-12-20T08:01:10;100.83;;;45.33;;
39936;SDS011;27803;42.740;23.340;2023-12-20T08:03:37;90.10;;;47.63;;
39936;SDS011;27803;42.740;23.340;2023-12-20T08:06:02;126.63;;;51.73;;
39936;SDS011;27803;42.740;23.340;2023-12-20T08:08:29;109.00;;;50.97;;
39936;SDS011;27803;42.740;23.340;2023-12-20T08:10:55;99.33;;;46.67;;
39936;SDS011;27803;42.740;23.340;2023-12-20T08:13:22;98.27;;;46.13;;
39936;SDS011;27803;42.740;23.340;2023-12-20T08:15:51;106.40;;;47.80;;
39936;SDS011;27803;42.740;23.340;2023-12-20T08:18:20;107.00;;;46.67;;
39936;SDS011;27803;42.740;23.340;2023-12-20T08:20:46;113.97;;;52.80;;
39936;SDS011;27803;42.740;23.340;2023-12-20T08:23:12;119.60;;;51.80;;
39936;SDS011;27803;42.740;23.340;2023-12-20T08:25:38;105.40;;;49.53;;
39936;SDS011;27803;42.740;23.340;2023-12-20T08:28:03;121.03;;;50.77;;
39936;SDS011;27803;42.740;23.340;2023-12-20T08:30:29;111.83;;;46.30;;
39936;SDS011;27803;42.740;23.340;2023-12-20T08:32:56;119.73;;;53.40;;
39936;SDS011;27803;42.740;23.340;2023-12-20T08:35:21;116.17;;;48.77;;
39936;SDS011;27803;42.740;23.340;2023-12-20T08:37:47;99.50;;;48.90;;
39936;SDS011;27803;42.740;23.340;2023-12-20T08:40:12;114.57;;;50.90;;
39936;SDS011;27803;42.740;23.340;2023-12-20T08:42:38;121.30;;;58.00;;
39936;SDS011;27803;42.740;23.340;2023-12-20T08:45:04;125.80;;;59.80;;
39936;SDS011;27803;42.740;23.340;2023-12-20T08:47:30;127.27;;;68.20;;
39936;SDS011;27803;42.740;23.340;2023-12-20T08:49:55;133.10;;;63.20;;
39936;SDS011;27803;42.740;23.340;2023-12-20T08:52:23;106.83;;;54.93;;
39936;SDS011;27803;42.740;23.340;2023-12-20T08:54:49;113.53;;;56.37;;
39936;SDS011;27803;42.740;23.340;2023-12-20T08:57:17;122.13;;;59.17;;
39936;SDS011;27803;42.740;23.340;2023-12-20T08:59:43;125.07;;;61.17;;
39936;SDS011;27803;42.740;23.340;2023-12-20T09:02:09;127.37;;;59.80;;
39936;SDS011;27803;42.740;23.340;2023-12-20T09:04:34;138.13;;;61.07;;
39936;SDS011;27803;42.740;23.340;2023-12-20T09:07:00;127.43;;;60.47;;
39936;SDS011;27803;42.740;23.340;2023-12-20T09:09:26;140.90;;;67.83;;
39936;SDS011;27803;42.740;23.340;2023-12-20T09:11:51;146.97;;;72.50;;
39936;SDS011;27803;42.740;23.340;2023-12-20T09:14:17;134.60;;;57.33;;
39936;SDS011;27803;42.740;23.340;2023-12-20T09:16:42;124.40;;;58.80;;
39936;SDS011;27803;42.740;23.340;2023-12-20T09:19:08;121.50;;;57.30;;
39936;SDS011;27803;42.740;23.340;2023-12-20T09:21:33;140.97;;;64.77;;
39936;SDS011;27803;42.740;23.340;2023-12-20T09:23:58;139.70;;;64.23;;
39936;SDS011;27803;42.740;23.340;2023-12-20T09:26:24;157.83;;;72.97;;
39936;SDS011;27803;42.740;23.340;2023-12-20T09:28:49;149.47;;;69.23;;
39936;SDS011;27803;42.740;23.340;2023-12-20T09:31:14;144.17;;;68.33;;
39936;SDS011;27803;42.740;23.340;2023-12-20T09:33:40;163.27;;;72.17;;
39936;SDS011;27803;42.740;23.340;2023-12-20T09:36:05;157.40;;;71.63;;
39936;SDS011;27803;42.740;23.340;2023-12-20T09:38:31;153.07;;;70.00;;
39936;SDS011;27803;42.740;23.340;2023-12-20T09:40:56;178.63;;;81.67;;
39936;SDS011;27803;42.740;23.340;2023-12-20T09:43:23;169.07;;;80.37;;
39936;SDS011;27803;42.740;23.340;2023-12-20T09:45:51;169.00;;;79.23;;
39936;SDS011;27803;42.740;23.340;2023-12-20T09:48:18;157.23;;;74.37;;
39936;SDS011;27803;42.740;23.340;2023-12-20T09:50:44;163.97;;;73.33;;
39936;SDS011;27803;42.740;23.340;2023-12-20T09:53:11;169.70;;;76.97;;
39936;SDS011;27803;42.740;23.340;2023-12-20T09:55:40;155.17;;;71.17;;
39936;SDS011;27803;42.740;23.340;2023-12-20T09:58:06;146.17;;;67.57;;
39936;SDS011;27803;42.740;23.340;2023-12-20T10:00:33;159.77;;;72.77;;
39936;SDS011;27803;42.740;23.340;2023-12-20T10:03:00;167.93;;;77.13;;
39936;SDS011;27803;42.740;23.340;2023-12-20T10:05:28;159.73;;;67.33;;
39936;SDS011;27803;42.740;23.340;2023-12-20T10:07:55;150.53;;;68.30;;
39936;SDS011;27803;42.740;23.340;2023-12-20T10:10:20;172.00;;;79.97;;
39936;SDS011;27803;42.740;23.340;2023-12-20T10:13:00;158.33;;;71.43;;
39936;SDS011;27803;42.740;23.340;2023-12-20T10:15:26;181.20;;;83.80;;
39936;SDS011;27803;42.740;23.340;2023-12-20T10:17:51;178.87;;;83.50;;
39936;SDS011;27803;42.740;23.340;2023-12-20T10:20:17;176.57;;;83.60;;
39936;SDS011;27803;42.740;23.340;2023-12-20T10:22:42;201.90;;;95.30;;
39936;SDS011;27803;42.740;23.340;2023-12-20T10:25:08;191.30;;;87.73;;
39936;SDS011;27803;42.740;23.340;2023-12-20T10:27:33;162.07;;;75.27;;
39936;SDS011;27803;42.740;23.340;2023-12-20T10:29:59;191.67;;;86.33;;
39936;SDS011;27803;42.740;23.340;2023-12-20T10:32:25;184.23;;;86.57;;
39936;SDS011;27803;42.740;23.340;2023-12-20T10:34:53;196.03;;;88.10;;
39936;SDS011;27803;42.740;23.340;2023-12-20T10:37:19;170.10;;;75.80;;
39936;SDS011;27803;42.740;23.340;2023-12-20T10:39:49;174.33;;;73.27;;
39936;SDS011;27803;42.740;23.340;2023-12-20T10:42:16;163.83;;;75.50;;
39936;SDS011;27803;42.740;23.340;2023-12-20T10:44:46;168.67;;;81.73;;
39936;SDS011;27803;42.740;23.340;2023-12-20T10:47:12;183.83;;;82.33;;
39936;SDS011;27803;42.740;23.340;2023-12-20T10:49:40;191.23;;;84.83;;
39936;SDS011;27803;42.740;23.340;2023-12-20T10:52:06;187.17;;;87.63;;
39936;SDS011;27803;42.740;23.340;2023-12-20T10:54:34;172.43;;;82.33;;
39936;SDS011;27803;42.740;23.340;2023-12-20T10:56:59;177.63;;;84.63;;
39936;SDS011;27803;42.740;23.340;2023-12-20T10:59:26;160.83;;;76.60;;
39936;SDS011;27803;42.740;23.340;2023-12-20T11:01:54;171.80;;;73.13;;
39936;SDS011;27803;42.740;23.340;2023-12-20T11:04:25;145.40;;;69.57;;
39936;SDS011;27803;42.740;23.340;2023-12-20T11:07:02;140.77;;;65.70;;
39936;SDS011;27803;42.740;23.340;2023-12-20T11:09:43;164.67;;;73.47;;
39936;SDS011;27803;42.740;23.340;2023-12-20T11:12:22;151.90;;;67.73;;
39936;SDS011;27803;42.740;23.340;2023-12-20T11:14:54;147.40;;;65.37;;
39936;SDS011;27803;42.740;23.340;2023-12-20T11:17:22;139.90;;;60.17;;
39936;SDS011;27803;42.740;23.340;2023-12-20T11:22:17;129.27;;;54.73;;
39936;SDS011;27803;42.740;23.340;2023-12-20T11:24:44;127.50;;;59.43;;
39936;SDS011;27803;42.740;23.340;2023-12-20T11:27:09;128.50;;;59.57;;
39936;SDS011;27803;42.740;23.340;2023-12-20T11:29:35;130.07;;;60.10;;
39936;SDS011;27803;42.740;23.340;2023-12-20T11:32:28;138.27;;;58.70;;
39936;SDS011;27803;42.740;23.340;2023-12-20T11:34:54;112.50;;;52.70;;
39936;SDS011;27803;42.740;23.340;2023-12-20T11:37:20;99.43;;;46.03;;
39936;SDS011;27803;42.740;23.340;2023-12-20T11:39:54;95.67;;;44.93;;
39936;SDS011;27803;42.740;23.340;2023-12-20T11:42:21;111.47;;;44.40;;
39936;SDS011;27803;42.740;23.340;2023-12-20T11:44:47;103.93;;;46.37;;
39936;SDS011;27803;42.740;23.340;2023-12-20T11:47:13;106.77;;;45.70;;
39936;SDS011;27803;42.740;23.340;2023-12-20T11:49:40;104.70;;;44.53;;
39936;SDS011;27803;42.740;23.340;2023-12-20T11:52:06;106.77;;;43.40;;
39936;SDS011;27803;42.740;23.340;2023-12-20T11:54:31;98.07;;;45.83;;
39936;SDS011;27803;42.740;23.340;2023-12-20T11:56:57;102.23;;;44.30;;
39936;SDS011;27803;42.740;23.340;2023-12-20T11:59:22;119.10;;;52.60;;
39936;SDS011;27803;42.740;23.340;2023-12-20T12:01:48;143.13;;;56.50;;
39936;SDS011;27803;42.740;23.340;2023-12-20T12:04:15;119.73;;;52.90;;
39936;SDS011;27803;42.740;23.340;2023-12-20T12:06:42;110.43;;;46.93;;
39936;SDS011;27803;42.740;23.340;2023-12-20T12:09:08;111.37;;;46.27;;
39936;SDS011;27803;42.740;23.340;2023-12-20T12:11:33;114.37;;;46.77;;
39936;SDS011;27803;42.740;23.340;2023-12-20T12:13:59;127.30;;;49.87;;
39936;SDS011;27803;42.740;23.340;2023-12-20T12:16:25;112.03;;;45.03;;
39936;SDS011;27803;42.740;23.340;2023-12-20T12:18:56;104.83;;;42.77;;
39936;SDS011;27803;42.740;23.340;2023-12-20T12:21:22;99.63;;;42.73;;
39936;SDS011;27803;42.740;23.340;2023-12-20T12:23:48;101.97;;;44.50;;
39936;SDS011;27803;42.740;23.340;2023-12-20T12:26:13;117.30;;;45.30;;
39936;SDS011;27803;42.740;23.340;2023-12-20T12:28:42;99.83;;;44.47;;
39936;SDS011;27803;42.740;23.340;2023-12-20T12:31:08;98.97;;;42.47;;
39936;SDS011;27803;42.740;23.340;2023-12-20T12:33:38;113.33;;;45.00;;
39936;SDS011;27803;42.740;23.340;2023-12-20T12:36:04;97.97;;;42.27;;
39936;SDS011;27803;42.740;23.340;2023-12-20T12:38:32;91.87;;;42.67;;
39936;SDS011;27803;42.740;23.340;2023-12-20T12:40:57;110.83;;;47.10;;
39936;SDS011;27803;42.740;23.340;2023-12-20T12:43:23;106.70;;;43.37;;
39936;SDS011;27803;42.740;23.340;2023-12-20T12:45:49;105.93;;;42.73;;
39936;SDS011;27803;42.740;23.340;2023-12-20T12:48:14;105.37;;;42.23;;
39936;SDS011;27803;42.740;23.340;2023-12-20T12:50:40;94.47;;;42.20;;
39936;SDS011;27803;42.740;23.340;2023-12-20T12:53:05;123.90;;;48.27;;
39936;SDS011;27803;42.740;23.340;2023-12-20T12:55:31;139.00;;;48.43;;
39936;SDS011;27803;42.740;23.340;2023-12-20T12:57:56;127.60;;;48.73;;
39936;SDS011;27803;42.740;23.340;2023-12-20T13:00:22;114.93;;;43.97;;
39936;SDS011;27803;42.740;23.340;2023-12-20T13:02:47;113.97;;;44.40;;
39936;SDS011;27803;42.740;23.340;2023-12-20T13:05:13;117.10;;;49.13;;
39936;SDS011;27803;42.740;23.340;2023-12-20T13:07:38;116.03;;;44.90;;
39936;SDS011;27803;42.740;23.340;2023-12-20T13:10:04;124.50;;;44.57;;
39936;SDS011;27803;42.740;23.340;2023-12-20T13:12:30;102.50;;;38.83;;
39936;SDS011;27803;42.740;23.340;2023-12-20T13:14:57;129.17;;;48.67;;
39936;SDS011;27803;42.740;23.340;2023-12-20T13:17:22;136.80;;;43.20;;
39936;SDS011;27803;42.740;23.340;2023-12-20T13:19:48;115.97;;;38.83;;
39936;SDS011;27803;42.740;23.340;2023-12-20T13:22:14;133.80;;;44.60;;
39936;SDS011;27803;42.740;23.340;2023-12-20T13:24:40;119.97;;;41.63;;
39936;SDS011;27803;42.740;23.340;2023-12-20T13:27:05;125.87;;;45.03;;
39936;SDS011;27803;42.740;23.340;2023-12-20T13:29:31;97.87;;;41.17;;
39936;SDS011;27803;42.740;23.340;2023-12-20T13:31:56;93.40;;;39.73;;
39936;SDS011;27803;42.740;23.340;2023-12-20T13:34:22;225.60;;;78.37;;
39936;SDS011;27803;42.740;23.340;2023-12-20T13:36:48;102.53;;;40.10;;
39936;SDS011;27803;42.740;23.340;2023-12-20T13:39:15;102.73;;;37.43;;
39936;SDS011;27803;42.740;23.340;2023-12-20T13:41:41;121.80;;;37.47;;
39936;SDS011;27803;42.740;23.340;2023-12-20T13:44:07;102.30;;;37.97;;
39936;SDS011;27803;42.740;23.340;2023-12-20T13:46:32;92.77;;;39.33;;
39936;SDS011;27803;42.740;23.340;2023-12-20T13:48:57;97.23;;;40.73;;
39936;SDS011;27803;42.740;23.340;2023-12-20T13:51:23;126.57;;;44.07;;
39936;SDS011;27803;42.740;23.340;2023-12-20T13:53:48;99.70;;;43.90;;
39936;SDS011;27803;42.740;23.340;2023-12-20T13:56:14;111.33;;;44.67;;
39936;SDS011;27803;42.740;23.340;2023-12-20T13:58:40;118.57;;;39.23;;
39936;SDS011;27803;42.740;23.340;2023-12-20T14:01:06;93.90;;;40.23;;
39936;SDS011;27803;42.740;23.340;2023-12-20T14:03:32;90.37;;;38.87;;